Time;durP1;ratioP1;P1;durP2;ratioP2;P2;SDS_P1;SDS_P2;PMS_P1;PMS_P2;Temp;Humidity;BMP_temperature;BMP_pressure;BME280_temperature;BME280_humidity;BME280_pressure;Samples;Min_cycle;Max_cycle;Signal;HPM_P1;HPM_P2
2021/09/23 00:00:18;;;;;;;5.53;3.28;;;8.60;99.90;;;;;;5054612;28;20039;-76
2021/09/23 00:05:11;;;;;;;4.22;3.00;;;8.70;99.90;;;;;;5053471;28;20060;-76
2021/09/23 00:07:39;;;;;;;6.15;2.88;;;8.70;99.90;;;;;;5053880;28;20032;-76
2021/09/23 00:10:06;;;;;;;7.90;3.80;;;8.50;99.90;;;;;;5053828;28;20035;-75
2021/09/23 00:12:32;;;;;;;6.10;4.00;;;8.40;99.90;;;;;;5053835;28;20036;-76
2021/09/23 00:14:58;;;;;;;7.75;3.55;;;8.40;99.90;;;;;;5053716;28;20043;-75
2021/09/23 00:17:25;;;;;;;7.03;3.42;;;8.40;99.90;;;;;;5053952;28;20043;-75
2021/09/23 00:19:51;;;;;;;6.90;4.45;;;8.30;99.90;;;;;;5053195;28;20374;-75
2021/09/23 00:22:17;;;;;;;6.07;4.00;;;8.20;99.90;;;;;;5052986;28;20052;-76
2021/09/23 00:24:43;;;;;;;5.72;3.75;;;8.10;99.90;;;;;;5063761;28;20041;-75
2021/09/23 00:27:10;;;;;;;6.55;4.15;;;7.90;99.90;;;;;;5053999;28;20029;-74
2021/09/23 00:29:36;;;;;;;6.78;4.00;;;7.80;99.90;;;;;;5054325;28;20021;-74
2021/09/23 00:32:04;;;;;;;7.88;3.40;;;7.80;99.90;;;;;;5053351;28;20033;-74
2021/09/23 00:34:30;;;;;;;8.48;4.18;;;7.80;99.90;;;;;;5053868;28;20040;-75
2021/09/23 00:36:56;;;;;;;5.53;3.67;;;7.80;99.90;;;;;;5053146;28;20033;-74
2021/09/23 00:39:24;;;;;;;6.50;3.58;;;7.80;99.90;;;;;;5053631;28;20359;-74
2021/09/23 00:41:51;;;;;;;7.45;3.92;;;7.80;99.90;;;;;;5053017;28;20378;-73
2021/09/23 00:44:23;;;;;;;5.88;3.67;;;7.90;99.90;;;;;;5053296;28;20053;-74
2021/09/23 00:46:50;;;;;;;6.22;4.55;;;7.90;99.90;;;;;;5052882;28;20049;-74
2021/09/23 00:49:20;;;;;;;6.32;3.53;;;7.90;99.90;;;;;;5051932;28;20490;-75
2021/09/23 00:51:47;;;;;;;5.50;3.63;;;8.00;99.90;;;;;;5034790;28;20379;-75
2021/09/23 00:54:14;;;;;;;6.57;4.03;;;8.00;99.90;;;;;;5053274;28;20044;-75
2021/09/23 00:56:42;;;;;;;5.78;3.40;;;8.00;99.90;;;;;;5034547;28;20045;-74
2021/09/23 00:59:09;;;;;;;5.47;3.05;;;7.80;99.90;;;;;;5038608;28;20045;-75
2021/09/23 01:01:45;;;;;;;7.80;3.78;;;7.70;99.90;;;;;;5035527;28;20041;-76
2021/09/23 01:04:13;;;;;;;5.10;3.30;;;7.60;99.90;;;;;;5049471;28;20037;-77
2021/09/23 01:06:39;;;;;;;6.38;3.75;;;7.60;99.90;;;;;;5037742;28;20041;-76
2021/09/23 01:09:06;;;;;;;6.32;3.47;;;7.40;99.90;;;;;;5034298;28;20036;-75
2021/09/23 01:11:32;;;;;;;9.90;3.63;;;7.30;99.90;;;;;;5050916;28;20036;-76
2021/09/23 01:13:58;;;;;;;6.07;4.05;;;7.40;99.90;;;;;;5042300;28;20388;-74
2021/09/23 01:16:36;;;;;;;5.15;3.35;;;7.40;99.90;;;;;;5049970;28;20052;-76
2021/09/23 01:19:13;;;;;;;6.55;3.40;;;7.40;99.90;;;;;;5046789;28;20047;-75
2021/09/23 01:21:40;;;;;;;6.15;4.40;;;7.30;99.90;;;;;;5034208;28;20040;-75
2021/09/23 01:24:08;;;;;;;7.60;4.00;;;7.40;99.90;;;;;;5038058;28;20052;-75
2021/09/23 01:26:34;;;;;;;6.30;3.90;;;7.40;99.90;;;;;;5050267;28;20489;-75
2021/09/23 01:29:10;;;;;;;5.68;3.30;;;7.40;99.90;;;;;;5042618;28;20040;-75
2021/09/23 01:31:47;;;;;;;5.53;3.70;;;7.40;99.90;;;;;;5040146;28;20092;-76
2021/09/23 01:34:13;;;;;;;7.50;4.07;;;7.50;99.90;;;;;;5051391;28;20044;-75
2021/09/23 01:36:41;;;;;;;5.75;3.92;;;7.50;99.90;;;;;;5034763;28;20052;-75
2021/09/23 01:39:07;;;;;;;6.35;3.53;;;7.40;99.90;;;;;;5018412;28;20043;-77
2021/09/23 01:41:35;;;;;;;5.30;3.85;;;7.30;99.90;;;;;;5050700;28;20049;-75
2021/09/23 01:44:02;;;;;;;5.60;3.58;;;7.20;99.90;;;;;;5034266;28;20490;-75
2021/09/23 01:46:29;;;;;;;7.82;3.45;;;7.10;99.90;;;;;;5051054;28;20048;-76
2021/09/23 01:49:16;;;;;;;5.20;3.78;;;7.00;99.90;;;;;;5052199;28;20044;-75
2021/09/23 01:51:43;;;;;;;6.65;4.25;;;7.20;99.90;;;;;;5050822;28;20045;-76
2021/09/23 01:54:10;;;;;;;4.95;3.33;;;7.40;99.90;;;;;;5049698;28;20045;-75
2021/09/23 01:56:36;;;;;;;5.70;4.03;;;7.40;99.90;;;;;;5034327;28;20401;-75
2021/09/23 01:59:03;;;;;;;5.40;4.00;;;7.30;99.90;;;;;;5040576;28;20417;-75
2021/09/23 02:01:30;;;;;;;6.70;3.75;;;7.10;99.90;;;;;;5050711;28;20044;-75
2021/09/23 02:03:56;;;;;;;7.95;3.38;;;7.00;99.90;;;;;;5046019;28;20052;-76
2021/09/23 02:06:44;;;;;;;6.45;3.85;;;7.00;99.90;;;;;;5050992;28;20037;-75
2021/09/23 02:09:10;;;;;;;8.15;4.53;;;7.00;99.90;;;;;;5050629;28;20037;-76
2021/09/23 02:11:37;;;;;;;7.65;4.93;;;7.00;99.90;;;;;;5050605;28;20044;-76
2021/09/23 02:14:05;;;;;;;5.47;3.55;;;6.90;99.90;;;;;;5044420;28;20053;-75
2021/09/23 02:16:32;;;;;;;6.53;3.85;;;6.80;99.90;;;;;;5034515;28;20494;-76
2021/09/23 02:19:18;;;;;;;6.85;3.90;;;6.70;99.90;;;;;;5051997;28;20044;-75
2021/09/23 02:21:45;;;;;;;6.93;4.47;;;6.60;99.90;;;;;;5050295;28;20041;-75
2021/09/23 02:24:11;;;;;;;10.65;4.35;;;6.60;99.90;;;;;;5043508;28;20044;-75
2021/09/23 02:26:37;;;;;;;6.13;3.78;;;6.60;99.90;;;;;;5039269;28;20047;-76
2021/09/23 02:29:03;;;;;;;8.43;4.75;;;6.70;99.90;;;;;;5033987;28;20037;-75
2021/09/23 02:31:30;;;;;;;6.88;4.10;;;6.80;99.90;;;;;;5044645;28;20037;-74
2021/09/23 02:33:56;;;;;;;7.28;4.90;;;7.00;99.90;;;;;;5049203;28;20041;-74
2021/09/23 02:36:22;;;;;;;6.57;4.32;;;7.00;99.90;;;;;;5050024;28;20052;-75
2021/09/23 02:38:48;;;;;;;8.15;4.40;;;7.00;99.90;;;;;;5050124;28;20041;-75
2021/09/23 02:41:14;;;;;;;7.68;4.22;;;7.10;99.90;;;;;;5048922;28;20041;-75
2021/09/23 02:43:41;;;;;;;5.90;4.05;;;7.00;99.90;;;;;;5049620;28;20052;-77
2021/09/23 02:46:07;;;;;;;7.22;4.82;;;7.00;99.90;;;;;;5033935;28;20494;-76
2021/09/23 02:48:33;;;;;;;8.35;4.10;;;6.90;99.90;;;;;;5033456;28;20048;-75
2021/09/23 02:50:59;;;;;;;5.43;3.88;;;7.00;99.90;;;;;;5033382;28;20052;-75
2021/09/23 02:53:26;;;;;;;6.90;4.45;;;7.00;99.90;;;;;;5067837;28;20473;-76
2021/09/23 02:55:52;;;;;;;6.93;4.32;;;6.90;99.90;;;;;;5049079;28;20067;-76
2021/09/23 02:58:18;;;;;;;6.68;3.85;;;6.90;99.90;;;;;;5051405;28;20033;-76
2021/09/23 03:00:44;;;;;;;6.40;4.15;;;7.00;99.90;;;;;;5050027;28;20037;-76
2021/09/23 03:03:14;;;;;;;6.18;3.90;;;7.00;99.90;;;;;;5042471;28;20139;-76
2021/09/23 03:05:44;;;;;;;7.55;5.30;;;6.90;99.90;;;;;;5049489;28;20047;-75
2021/09/23 03:08:11;;;;;;;4.68;3.08;;;6.70;99.90;;;;;;5054319;28;20339;-76
2021/09/23 03:10:38;;;;;;;7.05;4.45;;;6.60;99.90;;;;;;5054481;28;20041;-76
2021/09/23 03:13:04;;;;;;;5.57;3.47;;;6.60;99.90;;;;;;5035917;28;20490;-75
2021/09/23 03:15:30;;;;;;;6.30;3.83;;;6.50;99.90;;;;;;5047212;28;20049;-75
2021/09/23 03:17:56;;;;;;;6.07;3.67;;;6.50;99.90;;;;;;5055133;28;20469;-73
2021/09/23 03:20:24;;;;;;;6.30;3.97;;;6.60;99.90;;;;;;5036893;28;20037;-76
2021/09/23 03:22:51;;;;;;;6.63;4.00;;;6.70;99.90;;;;;;5052944;28;20044;-75
2021/09/23 03:25:18;;;;;;;5.50;3.42;;;6.80;99.90;;;;;;5039770;28;20033;-76
2021/09/23 03:27:45;;;;;;;6.82;3.20;;;6.80;99.90;;;;;;5049880;28;20037;-76
2021/09/23 03:30:12;;;;;;;3.90;2.95;;;6.70;99.90;;;;;;5054570;28;20044;-76
2021/09/23 03:32:38;;;;;;;6.03;3.17;;;6.50;99.90;;;;;;5054677;28;20040;-76
2021/09/23 03:35:05;;;;;;;7.10;3.63;;;6.50;99.90;;;;;;5054295;28;20029;-75
2021/09/23 03:37:31;;;;;;;6.13;3.58;;;6.60;99.90;;;;;;5054678;28;20037;-76
2021/09/23 03:39:57;;;;;;;5.70;3.60;;;6.50;99.90;;;;;;5054053;28;20044;-74
2021/09/23 03:42:23;;;;;;;6.05;3.72;;;6.50;99.90;;;;;;5054082;28;20474;-74
2021/09/23 03:44:49;;;;;;;7.68;3.90;;;6.60;99.90;;;;;;5054595;28;20056;-74
2021/09/23 03:47:16;;;;;;;6.00;3.65;;;6.40;99.90;;;;;;5052413;28;20037;-76
2021/09/23 03:49:42;;;;;;;6.10;4.38;;;6.30;99.90;;;;;;5035848;28;20532;-75
2021/09/23 03:52:08;;;;;;;4.70;2.97;;;6.30;99.90;;;;;;5049940;28;20055;-76
2021/09/23 03:54:34;;;;;;;7.43;3.85;;;6.20;99.90;;;;;;5036313;28;20053;-75
2021/09/23 03:57:01;;;;;;;6.88;4.13;;;6.30;99.90;;;;;;5051868;28;20041;-75
2021/09/23 03:59:27;;;;;;;8.27;3.88;;;6.30;99.90;;;;;;5048406;28;20037;-76
2021/09/23 04:01:54;;;;;;;7.70;4.40;;;6.20;99.90;;;;;;5043527;28;20064;-74
2021/09/23 04:04:21;;;;;;;5.80;3.63;;;6.10;99.90;;;;;;5036322;28;20489;-77
2021/09/23 04:06:47;;;;;;;8.05;4.15;;;6.10;99.90;;;;;;5036568;28;20052;-76
2021/09/23 04:09:16;;;;;;;5.90;3.85;;;6.10;99.90;;;;;;5053718;28;20040;-76
2021/09/23 04:11:43;;;;;;;7.53;4.32;;;6.00;99.90;;;;;;5052225;28;20060;-76
2021/09/23 04:14:10;;;;;;;6.72;4.72;;;5.90;99.90;;;;;;5051713;28;20059;-76
2021/09/23 04:16:37;;;;;;;7.35;4.38;;;5.90;99.90;;;;;;5051621;28;20394;-75
2021/09/23 04:19:04;;;;;;;8.75;5.25;;;5.90;99.90;;;;;;5051651;28;20075;-76
2021/09/23 04:21:31;;;;;;;7.45;4.60;;;6.10;99.90;;;;;;5052162;28;20045;-77
2021/09/23 04:23:58;;;;;;;9.48;4.93;;;6.20;99.90;;;;;;5025118;28;20049;-75
2021/09/23 04:26:24;;;;;;;8.63;5.45;;;6.30;99.90;;;;;;5043323;28;20041;-76
2021/09/23 04:28:51;;;;;;;9.05;5.13;;;6.20;99.90;;;;;;5042871;28;20098;-76
2021/09/23 04:31:19;;;;;;;8.77;5.45;;;6.10;99.90;;;;;;5035500;28;20143;-77
2021/09/23 04:33:45;;;;;;;10.35;5.47;;;6.00;99.90;;;;;;5042976;28;20064;-77
2021/09/23 04:36:11;;;;;;;9.40;5.53;;;6.00;99.90;;;;;;5037565;28;20048;-76
2021/09/23 04:38:38;;;;;;;11.52;5.70;;;6.00;99.90;;;;;;5052000;28;20048;-76
2021/09/23 04:41:04;;;;;;;10.15;6.13;;;6.10;99.90;;;;;;5051788;28;20040;-76
2021/09/23 04:43:32;;;;;;;10.93;5.68;;;6.10;99.90;;;;;;5051911;28;20048;-77
2021/09/23 04:45:58;;;;;;;9.18;5.72;;;6.10;99.90;;;;;;5034853;28;20053;-76
2021/09/23 04:48:25;;;;;;;9.75;5.93;;;6.20;99.90;;;;;;5051908;28;20033;-77
2021/09/23 04:50:51;;;;;;;10.43;5.93;;;6.20;99.90;;;;;;5052064;28;20044;-77
2021/09/23 04:53:17;;;;;;;10.65;6.57;;;6.20;99.90;;;;;;5051188;28;20037;-76
2021/09/23 04:55:44;;;;;;;10.50;6.32;;;6.20;99.90;;;;;;5035581;28;20049;-76
2021/09/23 04:58:10;;;;;;;9.02;5.75;;;6.30;99.90;;;;;;5056854;28;20120;-76
2021/09/23 05:00:36;;;;;;;13.80;6.57;;;6.20;99.90;;;;;;5054863;28;20036;-76
2021/09/23 05:03:06;;;;;;;8.10;5.30;;;6.10;99.90;;;;;;5057902;28;20127;-77
2021/09/23 05:05:32;;;;;;;10.82;5.25;;;6.10;99.90;;;;;;5051044;28;20044;-76
2021/09/23 05:08:01;;;;;;;10.95;5.53;;;6.10;99.90;;;;;;5050105;28;20041;-75
2021/09/23 05:10:28;;;;;;;10.13;5.75;;;6.00;99.90;;;;;;5067853;28;20079;-77
2021/09/23 05:12:54;;;;;;;12.70;5.97;;;6.00;99.90;;;;;;5063754;28;20387;-77
2021/09/23 05:15:21;;;;;;;13.77;6.10;;;5.90;99.90;;;;;;5052547;28;20063;-77
2021/09/23 05:17:48;;;;;;;9.75;5.15;;;6.00;99.90;;;;;;5052318;28;20072;-74
2021/09/23 05:20:15;;;;;;;8.63;5.65;;;5.90;99.90;;;;;;5034833;28;20041;-78
2021/09/23 05:22:41;;;;;;;10.50;5.85;;;5.90;99.90;;;;;;5052560;28;20395;-76
2021/09/23 05:25:08;;;;;;;10.00;5.15;;;5.80;99.90;;;;;;5064551;28;20099;-77
2021/09/23 05:27:36;;;;;;;11.38;5.20;;;5.90;99.90;;;;;;5051658;28;20041;-78
2021/09/23 05:30:05;;;;;;;8.77;5.32;;;5.90;99.90;;;;;;5052649;28;20029;-76
2021/09/23 05:32:31;;;;;;;11.75;6.75;;;6.00;99.90;;;;;;5052895;28;20040;-77
2021/09/23 05:34:58;;;;;;;9.73;6.45;;;6.10;99.90;;;;;;5051933;28;20049;-74
2021/09/23 05:37:24;;;;;;;16.33;6.90;;;6.20;99.90;;;;;;5052668;28;20044;-77
2021/09/23 05:39:50;;;;;;;13.13;7.30;;;6.30;99.90;;;;;;5059388;28;20048;-77
2021/09/23 05:42:17;;;;;;;13.73;7.13;;;6.40;99.90;;;;;;5050657;28;20043;-77
2021/09/23 05:44:43;;;;;;;15.13;7.53;;;6.50;99.90;;;;;;5052291;28;20045;-77
2021/09/23 05:47:10;;;;;;;11.45;6.40;;;6.50;99.90;;;;;;5051974;28;20544;-76
2021/09/23 05:49:37;;;;;;;10.70;6.25;;;6.50;99.90;;;;;;5052235;28;20411;-77
2021/09/23 05:52:05;;;;;;;9.55;5.93;;;6.50;99.90;;;;;;5051980;28;20036;-76
2021/09/23 05:54:31;;;;;;;12.68;6.30;;;6.50;99.90;;;;;;5051014;28;20035;-75
2021/09/23 05:56:58;;;;;;;12.18;6.50;;;6.60;99.90;;;;;;5063691;28;20033;-73
2021/09/23 05:59:26;;;;;;;11.85;7.35;;;6.80;99.90;;;;;;5052343;28;20056;-77
2021/09/23 06:01:55;;;;;;;12.02;7.60;;;7.30;99.90;;;;;;5066096;28;20032;-77
2021/09/23 06:04:23;;;;;;;9.00;6.05;;;8.30;99.90;;;;;;5060063;28;20032;-75
2021/09/23 06:06:50;;;;;;;6.38;4.30;;;8.40;99.90;;;;;;5053702;28;20036;-78
2021/09/23 06:09:16;;;;;;;9.02;4.82;;;8.10;99.90;;;;;;5052740;28;20037;-77
2021/09/23 06:11:42;;;;;;;8.68;4.80;;;8.00;99.90;;;;;;5051753;28;20474;-77
2021/09/23 06:14:09;;;;;;;7.43;4.72;;;7.90;99.90;;;;;;5052474;28;20459;-75
2021/09/23 06:16:35;;;;;;;8.10;4.80;;;7.80;99.90;;;;;;5052214;28;20036;-77
2021/09/23 06:19:02;;;;;;;8.65;5.40;;;7.90;99.90;;;;;;5052248;28;20029;-78
2021/09/23 06:21:28;;;;;;;9.60;5.88;;;8.00;99.90;;;;;;5052977;28;20032;-79
2021/09/23 06:23:55;;;;;;;8.43;5.47;;;8.10;99.90;;;;;;5034333;28;20387;-79
2021/09/23 06:26:22;;;;;;;6.60;4.85;;;8.40;99.90;;;;;;5052766;28;20028;-77
2021/09/23 06:28:49;;;;;;;11.82;5.68;;;8.80;99.90;;;;;;5052322;28;20052;-79
2021/09/23 06:31:15;;;;;;;8.05;5.15;;;9.70;99.90;;;;;;5052872;28;20029;-78
2021/09/23 06:33:44;;;;;;;7.75;4.60;;;10.30;99.90;;;;;;5050982;28;20048;-79
2021/09/23 06:36:11;;;;;;;6.57;4.68;;;10.70;99.90;;;;;;5046706;28;20399;-79
2021/09/23 06:38:39;;;;;;;5.35;3.70;;;11.40;99.90;;;;;;5036093;28;20061;-79
2021/09/23 06:41:07;;;;;;;5.88;4.57;;;11.70;99.90;;;;;;5055147;28;20049;-79
2021/09/23 06:43:34;;;;;;;4.65;3.58;;;12.10;99.90;;;;;;5056118;28;20041;-78
2021/09/23 06:46:00;;;;;;;6.20;3.90;;;12.70;98.90;;;;;;5037413;28;20057;-77
2021/09/23 06:48:26;;;;;;;6.22;3.72;;;13.00;96.30;;;;;;5055607;28;20040;-78
2021/09/23 06:50:52;;;;;;;6.80;4.38;;;13.00;96.20;;;;;;5056161;28;20021;-79
2021/09/23 06:53:18;;;;;;;6.43;4.43;;;12.80;96.90;;;;;;5054784;28;20248;-79
2021/09/23 06:55:44;;;;;;;6.53;4.15;;;13.30;96.20;;;;;;5055850;28;20394;-79
2021/09/23 06:58:11;;;;;;;5.40;4.05;;;13.60;95.10;;;;;;5054703;28;20044;-80
2021/09/23 07:00:56;;;;;;;6.15;4.28;;;13.80;94.40;;;;;;5055871;28;20041;-79
2021/09/23 07:03:40;;;;;;;6.20;4.57;;;13.80;93.90;;;;;;5055834;28;20037;-79
2021/09/23 07:06:26;;;;;;;6.22;4.38;;;13.90;93.50;;;;;;5033723;28;20037;-78
2021/09/23 07:08:53;;;;;;;6.20;4.80;;;13.80;93.90;;;;;;5070257;28;20534;-79
2021/09/23 07:11:22;;;;;;;6.30;4.70;;;13.90;93.50;;;;;;5053207;28;20450;-79
2021/09/23 07:13:49;;;;;;;6.57;4.55;;;14.00;93.50;;;;;;5055214;28;20295;-79
2021/09/23 07:16:15;;;;;;;6.80;5.07;;;14.00;93.30;;;;;;5054695;28;20466;-78
2021/09/23 07:18:41;;;;;;;8.00;5.28;;;13.80;93.60;;;;;;5071162;28;20033;-78
2021/09/23 07:21:08;;;;;;;8.80;5.80;;;13.80;94.30;;;;;;5055330;28;20048;-79
2021/09/23 07:23:34;;;;;;;7.38;5.28;;;14.30;93.10;;;;;;5037271;28;20045;-79
2021/09/23 07:26:00;;;;;;;7.07;5.25;;;14.20;92.80;;;;;;5036633;28;20036;-77
2021/09/23 07:28:27;;;;;;;8.98;5.55;;;14.60;93.30;;;;;;5055656;28;20492;-79
2021/09/23 07:30:53;;;;;;;7.65;5.53;;;14.90;91.40;;;;;;5037865;28;20040;-78
2021/09/23 07:33:19;;;;;;;7.10;5.45;;;15.10;90.80;;;;;;5052686;28;20040;-78
2021/09/23 07:35:45;;;;;;;7.72;5.97;;;14.70;91.60;;;;;;5054398;28;20045;-79
2021/09/23 07:38:13;;;;;;;9.27;5.88;;;15.00;91.30;;;;;;5052360;28;20041;-77
2021/09/23 07:40:39;;;;;;;7.85;5.28;;;14.60;92.20;;;;;;5055026;28;20033;-77
2021/09/23 07:43:05;;;;;;;8.05;6.20;;;14.50;92.60;;;;;;5038217;28;20041;-79
2021/09/23 07:45:32;;;;;;;10.20;6.18;;;14.40;93.00;;;;;;5047746;28;20056;-79
2021/09/23 07:47:58;;;;;;;11.55;6.05;;;14.60;92.20;;;;;;5045671;28;20049;-79
2021/09/23 07:50:24;;;;;;;8.07;6.30;;;15.00;91.40;;;;;;5053823;28;20418;-79
2021/09/23 07:52:51;;;;;;;9.27;7.20;;;15.40;90.60;;;;;;5037224;28;20041;-77
2021/09/23 07:55:17;;;;;;;7.97;5.93;;;15.70;90.00;;;;;;5048204;28;20056;-77
2021/09/23 07:57:43;;;;;;;8.00;6.22;;;16.10;88.40;;;;;;5040936;28;20048;-77
2021/09/23 08:00:10;;;;;;;11.55;6.72;;;15.70;88.80;;;;;;5052425;28;20041;-78
2021/09/23 08:02:43;;;;;;;8.45;6.07;;;15.60;87.70;;;;;;5074234;28;20041;-80
2021/09/23 08:05:10;;;;;;;9.93;7.00;;;15.50;89.50;;;;;;5036648;28;20048;-78
2021/09/23 08:07:37;;;;;;;10.68;6.57;;;15.80;89.30;;;;;;5054463;28;20044;-79
2021/09/23 08:10:04;;;;;;;9.15;6.15;;;15.90;87.00;;;;;;5053458;28;20036;-77
2021/09/23 08:12:31;;;;;;;11.43;6.95;;;15.80;87.30;;;;;;5053686;28;20044;-80
2021/09/23 08:14:58;;;;;;;7.22;5.65;;;16.00;85.50;;;;;;5037091;28;20045;-78
2021/09/23 08:17:35;;;;;;;7.32;5.93;;;16.90;85.90;;;;;;5053556;28;20049;-79
2021/09/23 08:20:22;;;;;;;9.05;5.95;;;17.20;82.10;;;;;;5053856;28;20033;-77
2021/09/23 08:22:50;;;;;;;7.22;5.57;;;17.20;81.60;;;;;;5053026;28;20041;-79
2021/09/23 08:25:16;;;;;;;7.40;5.47;;;17.60;80.40;;;;;;5035442;28;20043;-78
2021/09/23 08:27:43;;;;;;;6.40;5.03;;;17.90;79.60;;;;;;5051351;28;20037;-78
2021/09/23 08:30:09;;;;;;;7.88;5.47;;;18.80;76.60;;;;;;5044174;28;20395;-78
2021/09/23 08:32:37;;;;;;;8.52;5.30;;;18.90;73.50;;;;;;5055075;28;20041;-78
2021/09/23 08:35:08;;;;;;;5.80;4.28;;;19.40;71.30;;;;;;5052569;28;20064;-78
2021/09/23 08:37:37;;;;;;;6.30;4.70;;;18.80;71.30;;;;;;5057319;28;20049;-77
2021/09/23 08:40:12;;;;;;;7.30;4.68;;;18.60;71.40;;;;;;5037759;28;20048;-77
2021/09/23 08:42:41;;;;;;;6.20;4.65;;;18.70;72.30;;;;;;5057412;28;20072;-77
2021/09/23 08:45:09;;;;;;;6.93;4.53;;;19.70;68.90;;;;;;5052552;28;20049;-77
2021/09/23 08:47:36;;;;;;;6.47;4.43;;;20.10;67.60;;;;;;5037409;28;20056;-78
2021/09/23 08:50:12;;;;;;;6.07;4.20;;;19.50;67.20;;;;;;5043868;28;20048;-77
2021/09/23 08:52:42;;;;;;;6.30;3.53;;;19.30;70.80;;;;;;5048331;28;20037;-78
2021/09/23 08:55:29;;;;;;;5.50;3.90;;;20.20;68.10;;;;;;5057782;28;20344;-79
2021/09/23 08:58:05;;;;;;;7.40;4.50;;;20.70;64.50;;;;;;5051299;28;20044;-82
2021/09/23 09:00:57;;;;;;;5.90;4.15;;;20.30;67.00;;;;;;5049205;28;20048;-78
2021/09/23 09:03:27;;;;;;;5.72;3.50;;;20.00;66.60;;;;;;5035955;28;20478;-82
2021/09/23 09:06:14;;;;;;;5.53;4.20;;;19.50;67.20;;;;;;5052739;28;20402;-80
2021/09/23 09:09:01;;;;;;;6.60;4.10;;;18.60;70.40;;;;;;5054321;28;20040;-79
2021/09/23 09:11:34;;;;;;;5.18;3.65;;;19.20;69.60;;;;;;5052900;28;20055;-79
2021/09/23 09:14:01;;;;;;;7.13;3.00;;;20.20;67.50;;;;;;5053865;28;20454;-79
2021/09/23 09:16:28;;;;;;;5.53;2.63;;;20.60;64.90;;;;;;5068138;28;20478;-78
2021/09/23 09:18:57;;;;;;;4.53;3.42;;;20.10;66.20;;;;;;5051728;28;20041;-76
2021/09/23 09:21:29;;;;;;;3.97;2.40;;;21.30;63.60;;;;;;5057298;28;20041;-78
2021/09/23 09:24:01;;;;;;;4.13;3.00;;;21.50;62.10;;;;;;5051971;28;20045;-78
2021/09/23 09:26:32;;;;;;;4.55;2.30;;;21.10;62.00;;;;;;5051753;28;20062;-79
2021/09/23 09:29:02;;;;;;;4.82;2.50;;;21.10;63.00;;;;;;5051605;28;20060;-78
2021/09/23 09:31:29;;;;;;;2.95;2.45;;;21.00;63.30;;;;;;5053374;28;20048;-79
2021/09/23 09:34:02;;;;;;;4.55;2.45;;;20.30;64.40;;;;;;5051276;28;20052;-78
2021/09/23 09:36:50;;;;;;;3.67;2.63;;;19.70;66.20;;;;;;5038497;28;20053;-78
2021/09/23 09:39:20;;;;;;;5.80;2.88;;;20.30;64.40;;;;;;5050837;28;20056;-79
2021/09/23 09:41:52;;;;;;;4.22;3.03;;;20.30;64.10;;;;;;5034775;28;20052;-79
2021/09/23 09:44:19;;;;;;;6.88;3.17;;;20.20;64.60;;;;;;5049306;28;20060;-79
2021/09/23 09:46:53;;;;;;;3.78;3.17;;;20.10;65.00;;;;;;5051092;28;20049;-79
2021/09/23 09:49:22;;;;;;;5.70;3.22;;;20.10;65.00;;;;;;5050480;28;20041;-78
2021/09/23 09:51:51;;;;;;;5.32;3.63;;;19.60;66.30;;;;;;5040152;28;20047;-81
2021/09/23 09:54:19;;;;;;;6.55;3.28;;;19.30;67.20;;;;;;5033676;28;20037;-78
2021/09/23 09:56:55;;;;;;;8.10;3.67;;;19.10;69.20;;;;;;5050789;28;20045;-78
2021/09/23 09:59:21;;;;;;;4.72;2.88;;;19.20;67.20;;;;;;5051383;28;20040;-79
2021/09/23 10:01:56;;;;;;;4.22;2.78;;;19.40;67.70;;;;;;5035352;28;20055;-78
2021/09/23 10:04:26;;;;;;;6.18;3.67;;;19.00;67.00;;;;;;5052268;28;20044;-78
2021/09/23 10:06:57;;;;;;;5.78;2.95;;;18.80;67.30;;;;;;5051277;28;20487;-77
2021/09/23 10:09:24;;;;;;;4.28;2.60;;;19.00;67.20;;;;;;5051941;28;20272;-78
2021/09/23 10:11:53;;;;;;;3.72;2.15;;;19.10;67.90;;;;;;5035034;28;20040;-79
2021/09/23 10:14:20;;;;;;;4.55;2.22;;;19.30;66.40;;;;;;5040807;28;20041;-83
2021/09/23 10:16:49;;;;;;;4.10;2.38;;;19.10;66.30;;;;;;5054842;28;20041;-80
2021/09/23 10:19:15;;;;;;;3.45;2.22;;;19.00;66.90;;;;;;5056505;28;20048;-79
2021/09/23 10:21:42;;;;;;;2.75;1.95;;;19.00;67.00;;;;;;5056751;28;20037;-79
2021/09/23 10:24:11;;;;;;;4.35;2.28;;;19.10;67.20;;;;;;5037493;28;20048;-78
2021/09/23 10:26:42;;;;;;;4.95;2.20;;;19.20;66.80;;;;;;5055924;28;20044;-78
2021/09/23 10:29:10;;;;;;;3.05;2.05;;;19.30;66.20;;;;;;5054458;28;20371;-78
2021/09/23 10:31:37;;;;;;;6.13;2.42;;;19.40;66.70;;;;;;5038092;28;20033;-78
2021/09/23 10:34:06;;;;;;;3.75;2.08;;;19.30;66.20;;;;;;5053985;28;20044;-78
2021/09/23 10:36:35;;;;;;;4.03;1.90;;;19.40;66.50;;;;;;5046586;28;20076;-79
2021/09/23 10:39:07;;;;;;;5.30;2.65;;;19.50;66.60;;;;;;5056468;28;20037;-77
2021/09/23 10:41:37;;;;;;;5.00;2.63;;;19.30;66.10;;;;;;5038046;28;20048;-78
2021/09/23 10:44:04;;;;;;;5.35;2.97;;;19.10;68.30;;;;;;5067903;28;20045;-78
2021/09/23 10:46:32;;;;;;;4.97;3.30;;;19.40;67.80;;;;;;5056026;28;20123;-79
2021/09/23 10:49:02;;;;;;;6.97;3.40;;;19.50;66.00;;;;;;5055974;28;20029;-79
2021/09/23 10:51:32;;;;;;;5.95;2.40;;;19.30;66.40;;;;;;5053285;28;20048;-79
2021/09/23 10:54:07;;;;;;;3.75;2.40;;;19.70;66.00;;;;;;5053697;28;20124;-78
2021/09/23 10:56:35;;;;;;;3.75;2.45;;;19.80;65.50;;;;;;5037151;28;20055;-80
2021/09/23 10:59:04;;;;;;;4.90;2.15;;;20.00;64.60;;;;;;5055308;28;20029;-79
2021/09/23 11:01:38;;;;;;;6.32;2.88;;;19.90;65.70;;;;;;5049409;28;20371;-79
2021/09/23 11:04:06;;;;;;;7.43;3.47;;;20.10;65.20;;;;;;5056096;28;20036;-80
2021/09/23 11:06:35;;;;;;;4.65;2.92;;;19.90;66.40;;;;;;5054153;28;20044;-78
2021/09/23 11:09:21;;;;;;;4.18;2.45;;;19.70;65.40;;;;;;5054552;28;20375;-78
2021/09/23 11:12:08;;;;;;;3.95;2.97;;;19.70;65.90;;;;;;5055093;28;20035;-77
2021/09/23 11:14:48;;;;;;;4.68;3.25;;;19.90;65.50;;;;;;5037625;28;20055;-78
2021/09/23 11:17:17;;;;;;;4.75;2.45;;;20.10;65.90;;;;;;5037704;28;20045;-78
2021/09/23 11:19:45;;;;;;;4.70;2.85;;;20.20;65.60;;;;;;5037904;28;20049;-79
2021/09/23 11:22:13;;;;;;;3.85;2.60;;;20.10;66.30;;;;;;5055050;28;20037;-79
2021/09/23 11:24:41;;;;;;;3.33;2.40;;;20.30;65.30;;;;;;5037870;28;20478;-80
2021/09/23 11:27:08;;;;;;;3.42;2.50;;;20.50;65.10;;;;;;5052151;28;20048;-80
2021/09/23 11:29:43;;;;;;;3.85;2.38;;;20.30;64.90;;;;;;5039166;28;20041;-78
2021/09/23 11:32:13;;;;;;;;;;;20.30;66.20;;;;;;5053994;28;20474;-77
2021/09/23 11:34:39;;;;;;;4.10;2.30;;;20.60;65.10;;;;;;5044320;28;19908;-79
2021/09/23 11:37:09;;;;;;;4.55;2.30;;;20.70;65.30;;;;;;5028423;28;20056;-78
2021/09/23 11:40:00;;;;;;;3.20;2.00;;;20.80;65.40;;;;;;5054994;28;20041;-79
2021/09/23 11:42:31;;;;;;;3.72;2.40;;;20.90;64.70;;;;;;5049234;28;20040;-80
2021/09/23 11:45:05;;;;;;;9.02;2.85;;;20.90;64.50;;;;;;5044353;28;20393;-79
2021/09/23 11:47:31;;;;;;;4.40;2.70;;;21.00;64.30;;;;;;5053526;28;20049;-79
2021/09/23 11:49:58;;;;;;;4.18;2.40;;;21.10;64.10;;;;;;5037069;28;20037;-77
2021/09/23 11:52:32;;;;;;;4.00;2.63;;;21.10;64.50;;;;;;5038044;28;20048;-79
2021/09/23 11:55:00;;;;;;;3.80;2.67;;;21.10;63.10;;;;;;5053039;28;20049;-78
2021/09/23 11:57:29;;;;;;;3.65;2.10;;;21.00;63.90;;;;;;5054519;28;20045;-78
2021/09/23 11:59:58;;;;;;;3.58;2.83;;;21.20;63.40;;;;;;5035999;28;20045;-76
2021/09/23 12:02:24;;;;;;;6.65;2.67;;;21.10;63.80;;;;;;5052271;28;20048;-77
2021/09/23 12:04:59;;;;;;;4.15;2.60;;;21.10;64.20;;;;;;5036790;28;20375;-77
2021/09/23 12:07:28;;;;;;;3.25;2.30;;;21.30;63.30;;;;;;5036457;28;20052;-78
2021/09/23 12:10:04;;;;;;;5.45;2.38;;;21.40;64.10;;;;;;5052449;28;20064;-79
2021/09/23 12:12:33;;;;;;;3.75;2.33;;;21.30;64.10;;;;;;5052813;28;20501;-79
2021/09/23 12:15:00;;;;;;;4.20;2.42;;;21.40;64.20;;;;;;5037240;28;20407;-79
2021/09/23 12:17:26;;;;;;;2.65;1.67;;;21.80;63.50;;;;;;5040238;28;20265;-79
2021/09/23 12:19:57;;;;;;;5.68;2.60;;;22.00;62.40;;;;;;5037576;28;20047;-78
2021/09/23 12:22:42;;;;;;;3.70;2.88;;;21.90;62.00;;;;;;5055313;28;20053;-78
2021/09/23 12:25:13;;;;;;;3.90;2.60;;;21.90;63.40;;;;;;5046802;28;20045;-79
2021/09/23 12:27:40;;;;;;;2.88;1.85;;;21.90;62.60;;;;;;5075507;28;20049;-79
2021/09/23 12:30:08;;;;;;;4.28;2.30;;;22.00;62.20;;;;;;5072304;28;20047;-79
2021/09/23 12:32:54;;;;;;;2.53;1.98;;;21.80;62.90;;;;;;5042370;28;20037;-78
2021/09/23 12:35:21;;;;;;;3.30;1.73;;;21.90;63.10;;;;;;5057231;28;20406;-77
2021/09/23 12:37:51;;;;;;;3.55;1.85;;;22.10;61.20;;;;;;5038777;28;20048;-79
2021/09/23 12:40:37;;;;;;;3.60;2.13;;;22.00;61.40;;;;;;5055521;28;20040;-80
2021/09/23 12:43:17;;;;;;;3.55;2.22;;;22.40;61.30;;;;;;5051123;28;20048;-80
2021/09/23 12:46:07;;;;;;;4.40;1.80;;;22.30;61.30;;;;;;5054120;28;20052;-77
2021/09/23 12:48:34;;;;;;;2.75;1.73;;;21.80;61.30;;;;;;5052829;28;20041;-80
2021/09/23 12:51:03;;;;;;;2.90;1.90;;;21.90;61.00;;;;;;5048008;28;20048;-79
2021/09/23 12:53:29;;;;;;;4.07;2.10;;;22.00;62.00;;;;;;5035040;28;20044;-78
2021/09/23 12:55:55;;;;;;;2.88;1.90;;;22.40;61.30;;;;;;5054852;28;20045;-79
2021/09/23 12:58:22;;;;;;;3.22;2.03;;;22.20;60.00;;;;;;5055135;28;20052;-79
2021/09/23 13:00:49;;;;;;;5.00;1.70;;;21.80;61.20;;;;;;5053447;28;20040;-79